Time;durP1;ratioP1;P1;durP2;ratioP2;P2;SDS_P1;SDS_P2;PMS_P1;PMS_P2;Temp;Humidity;BMP_temperature;BMP_pressure;BME280_temperature;BME280_humidity;BME280_pressure;Samples;Min_cycle;Max_cycle;Signal;HPM_P1;HPM_P2
2021/04/07 00:01:43;;;;;;;6.70;4.00;;;0.80;91.50;;;-0.59;75.90;97962.81;4981886;28;20522;-84
2021/04/07 00:04:09;;;;;;;6.20;3.88;;;0.80;91.30;;;-0.56;75.23;97965.09;4998562;28;20478;-83
2021/04/07 00:06:36;;;;;;;4.70;3.72;;;0.80;91.10;;;-0.62;75.43;97972.75;4997261;28;20426;-84
2021/04/07 00:09:03;;;;;;;7.03;3.85;;;0.80;90.90;;;-0.54;75.97;97964.94;4996475;28;20865;-84
2021/04/07 00:11:29;;;;;;;6.77;3.90;;;0.70;91.30;;;-0.51;76.51;97970.59;4995537;28;20473;-84
2021/04/07 00:13:57;;;;;;;7.93;3.85;;;0.80;91.70;;;-0.42;76.68;97966.19;4996331;28;20430;-83
2021/04/07 00:16:27;;;;;;;6.05;3.55;;;0.90;91.70;;;-0.34;76.20;97967.94;4995786;28;20781;-84
2021/04/07 00:18:53;;;;;;;8.53;3.80;;;0.90;91.40;;;-0.50;75.43;97971.41;4996389;28;20755;-84
2021/04/07 00:21:19;;;;;;;5.93;3.60;;;0.80;90.90;;;-0.46;76.33;97970.94;4996630;28;20419;-84
2021/04/07 00:23:45;;;;;;;5.40;3.50;;;0.80;91.50;;;-0.44;76.13;97984.56;4998139;28;20687;-84
2021/04/07 00:26:11;;;;;;;6.57;3.53;;;0.90;91.40;;;-0.47;76.67;97977.09;4998550;28;20489;-84
2021/04/07 00:28:37;;;;;;;7.32;3.47;;;0.80;91.40;;;-0.43;74.84;97980.16;5000335;28;20426;-83
2021/04/07 00:31:03;;;;;;;5.15;3.30;;;0.90;90.70;;;-0.59;75.03;97988.81;4998032;28;20446;-84
2021/04/07 00:33:30;;;;;;;5.72;3.45;;;0.80;90.70;;;-0.69;75.04;97985.59;4998333;28;20411;-85
2021/04/07 00:35:56;;;;;;;7.80;3.38;;;0.70;90.70;;;-0.60;76.51;97986.41;4998744;28;20529;-84
2021/04/07 00:38:22;;;;;;;4.07;3.60;;;0.70;91.50;;;-0.58;77.54;97985.25;4999961;28;20525;-83
2021/04/07 00:40:49;;;;;;;4.85;3.53;;;0.80;92.10;;;-0.46;77.90;97996.94;4998443;28;20449;-83
2021/04/07 00:43:15;;;;;;;5.22;3.47;;;0.80;92.40;;;-0.36;78.08;98001.91;4998278;28;20875;-85
2021/04/07 00:45:42;;;;;;;5.95;3.30;;;0.90;92.50;;;-0.30;76.99;98003.84;4998182;28;20507;-84
2021/04/07 00:48:09;;;;;;;6.40;3.78;;;1.00;91.90;;;-0.18;78.24;97999.94;4997519;28;20467;-83
2021/04/07 00:50:37;;;;;;;4.95;3.40;;;1.00;92.30;;;-0.14;76.79;97996.00;4997734;28;20429;-83
2021/04/07 00:53:03;;;;;;;5.82;3.40;;;1.10;91.80;;;-0.18;75.70;98005.13;4997216;28;20440;-85
2021/04/07 00:55:32;;;;;;;4.43;3.40;;;1.10;91.10;;;-0.11;75.64;98005.28;4997920;28;20407;-85
2021/04/07 00:57:59;;;;;;;5.25;3.22;;;1.20;91.20;;;-0.14;75.28;98011.59;4980090;28;20426;-85
2021/04/07 01:00:26;;;;;;;8.50;4.15;;;1.20;90.90;;;-0.26;74.78;98010.34;4998065;28;20527;-85
2021/04/07 01:02:55;;;;;;;5.45;3.60;;;1.10;90.40;;;-0.47;74.26;98016.09;4998091;28;20430;-85
2021/04/07 01:05:22;;;;;;;6.87;4.00;;;1.00;90.10;;;-0.57;74.73;98025.88;4999180;28;20406;-86
2021/04/07 01:07:49;;;;;;;6.40;3.67;;;0.80;90.60;;;-0.71;74.81;98020.53;5007701;28;20578;-84
2021/04/07 01:10:16;;;;;;;9.10;4.45;;;0.70;90.50;;;-0.75;75.26;98014.81;5011479;28;20486;-83
2021/04/07 01:12:44;;;;;;;9.10;4.38;;;0.60;90.90;;;-0.76;75.95;98013.22;5008613;28;20455;-82
2021/04/07 01:15:12;;;;;;;7.72;4.50;;;0.60;91.10;;;-0.82;75.76;98008.66;4989469;28;20654;-83
2021/04/07 01:17:39;;;;;;;8.98;4.03;;;0.50;91.00;;;-0.82;76.27;98019.88;5006637;28;20834;-83
2021/04/07 01:20:08;;;;;;;10.52;4.35;;;0.50;91.10;;;-0.90;75.29;98017.28;4998286;28;20422;-84
2021/04/07 01:22:37;;;;;;;6.20;4.20;;;0.50;90.70;;;-0.90;74.90;98016.47;4996882;28;20429;-85
2021/04/07 01:25:06;;;;;;;8.77;4.30;;;0.50;90.70;;;-0.90;75.36;98016.47;4997788;28;20452;-84
2021/04/07 01:27:33;;;;;;;6.05;4.20;;;0.50;90.90;;;-0.92;74.86;98019.25;4996554;28;20434;-84
2021/04/07 01:29:59;;;;;;;9.57;4.40;;;0.40;90.50;;;-0.82;76.27;98014.69;4997129;28;20415;-85
2021/04/07 01:32:26;;;;;;;9.82;4.70;;;0.40;91.20;;;-0.74;75.84;98024.25;4997022;28;20449;-85
2021/04/07 01:34:52;;;;;;;7.65;4.40;;;0.50;91.30;;;-0.83;74.31;98018.25;4997057;28;20522;-83
2021/04/07 01:37:18;;;;;;;6.53;4.10;;;0.50;90.20;;;-0.85;74.18;98022.81;4996247;28;20469;-84
2021/04/07 01:39:44;;;;;;;7.88;4.13;;;0.50;90.30;;;-0.82;74.16;98019.06;4980041;28;20427;-84
2021/04/07 01:42:12;;;;;;;8.40;4.65;;;0.50;90.30;;;-0.91;74.51;98027.84;4996316;28;20430;-85
2021/04/07 01:44:39;;;;;;;10.63;4.72;;;0.40;90.40;;;-0.86;75.35;98025.56;4997151;28;20422;-83
2021/04/07 01:47:08;;;;;;;7.53;4.50;;;0.40;90.90;;;-0.74;74.82;98028.63;4996696;28;20536;-85
2021/04/07 01:49:34;;;;;;;8.38;4.63;;;0.50;90.70;;;-0.74;74.71;98033.84;4997016;28;20736;-85
2021/04/07 01:52:01;;;;;;;9.55;4.65;;;0.60;90.60;;;-0.69;74.92;98034.19;4997307;28;20824;-85
2021/04/07 01:54:27;;;;;;;8.23;4.47;;;0.60;90.60;;;-0.64;75.23;98042.28;4997697;28;20410;-84
2021/04/07 01:56:56;;;;;;;8.20;4.60;;;0.60;90.60;;;-0.60;75.98;98038.41;4996812;28;20419;-84
2021/04/07 01:59:26;;;;;;;9.55;4.90;;;0.70;91.00;;;-0.51;75.92;98040.81;4996975;28;20444;-85
2021/04/07 02:01:54;;;;;;;7.05;4.57;;;0.70;91.10;;;-0.55;74.99;98031.72;4997088;28;20418;-84
2021/04/07 02:04:21;;;;;;;6.28;4.22;;;0.80;90.60;;;-0.60;73.83;98035.81;4997837;28;20414;-83
2021/04/07 02:06:48;;;;;;;8.10;4.72;;;0.70;90.10;;;-0.50;74.68;98036.41;4995700;28;20419;-83
2021/04/07 02:09:16;;;;;;;6.88;4.63;;;0.80;90.40;;;-0.55;74.20;98042.13;4995559;28;20410;-83
2021/04/07 02:11:43;;;;;;;11.50;4.72;;;0.80;90.30;;;-0.58;72.83;98039.84;4995550;28;20487;-83
2021/04/07 02:14:10;;;;;;;7.53;4.28;;;0.70;88.80;;;-0.61;72.19;98039.38;4995391;28;20406;-83
2021/04/07 02:16:38;;;;;;;9.85;4.85;;;0.70;88.20;;;-0.59;73.32;98048.59;4992589;28;20479;-83
2021/04/07 02:19:07;;;;;;;11.77;5.18;;;0.70;89.10;;;-0.52;73.01;98051.38;4993611;28;20529;-83
2021/04/07 02:21:34;;;;;;;10.35;5.10;;;0.80;89.10;;;-0.57;71.28;98057.06;4992608;28;20422;-83
2021/04/07 02:24:00;;;;;;;10.50;5.15;;;0.80;87.50;;;-0.70;71.87;98053.34;4993162;28;20446;-84
2021/04/07 02:26:26;;;;;;;8.77;4.90;;;0.70;87.40;;;-0.70;72.74;98050.75;4976034;28;20431;-84
2021/04/07 02:28:52;;;;;;;9.02;5.28;;;0.60;88.80;;;-0.65;73.42;98064.06;4994356;28;20426;-84
2021/04/07 02:31:18;;;;;;;11.77;5.07;;;0.60;89.80;;;-0.64;72.04;98069.09;4996210;28;20621;-84
2021/04/07 02:33:45;;;;;;;9.23;4.97;;;0.60;87.90;;;-0.89;71.66;98068.28;4996882;28;20411;-84
2021/04/07 02:36:11;;;;;;;7.78;5.25;;;0.50;87.40;;;-0.94;72.84;98069.75;4996809;28;20415;-85
2021/04/07 02:38:37;;;;;;;8.00;5.20;;;0.40;88.30;;;-0.84;72.08;98076.41;4979262;28;20706;-85
2021/04/07 02:41:03;;;;;;;10.03;5.13;;;0.40;88.00;;;-0.76;72.30;98070.41;4997230;28;20493;-85
2021/04/07 02:43:29;;;;;;;8.35;4.97;;;0.50;88.60;;;-0.77;72.26;98075.78;4986987;28;20422;-84
2021/04/07 02:45:55;;;;;;;8.63;4.78;;;0.50;88.70;;;-0.93;71.09;98081.78;4977985;28;20426;-83
2021/04/07 02:48:21;;;;;;;10.55;5.05;;;0.50;87.10;;;-0.87;71.82;98083.72;4997760;28;20697;-84
2021/04/07 02:50:49;;;;;;;9.25;5.38;;;0.40;87.80;;;-0.88;71.77;98082.91;4996037;28;20426;-84
2021/04/07 02:53:15;;;;;;;7.85;5.38;;;0.40;87.90;;;-0.72;71.98;98089.06;4996308;28;20524;-84
2021/04/07 02:55:41;;;;;;;8.18;5.57;;;0.50;88.10;;;-0.83;71.56;98080.63;4995467;28;20414;-84
2021/04/07 02:58:07;;;;;;;8.20;5.35;;;0.50;87.60;;;-0.74;72.20;98084.03;4996111;28;20474;-84
2021/04/07 03:00:33;;;;;;;6.45;4.78;;;0.60;88.30;;;-0.82;70.87;98097.03;4996263;28;20765;-84
2021/04/07 03:02:59;;;;;;;8.57;5.50;;;0.60;86.50;;;-0.89;71.10;98091.66;4995839;28;20448;-84
2021/04/07 03:05:25;;;;;;;8.20;5.53;;;0.50;86.80;;;-0.86;71.91;98095.75;4995879;28;20418;-84
2021/04/07 03:07:52;;;;;;;9.98;5.47;;;0.50;87.80;;;-0.88;71.70;98095.09;4995862;28;20421;-84
2021/04/07 03:10:18;;;;;;;7.57;5.50;;;0.50;87.80;;;-0.79;71.77;98094.13;4996746;28;20426;-84
2021/04/07 03:12:44;;;;;;;9.10;5.43;;;0.50;87.60;;;-0.70;71.39;98097.53;4996063;28;20441;-84
2021/04/07 03:15:11;;;;;;;12.20;4.80;;;0.60;87.80;;;-0.73;71.35;98114.25;4996667;28;20468;-83
2021/04/07 03:17:37;;;;;;;7.20;5.05;;;0.60;86.80;;;-0.69;70.87;98112.97;4995885;28;20713;-84
2021/04/07 03:20:06;;;;;;;11.07;5.50;;;0.70;86.80;;;-0.72;71.08;98110.69;4995930;28;20426;-85
2021/04/07 03:22:33;;;;;;;9.32;5.13;;;0.60;86.70;;;-0.77;70.39;98118.16;4995569;28;20456;-85
2021/04/07 03:25:00;;;;;;;8.10;4.55;;;0.60;86.40;;;-0.74;70.32;98114.41;4996024;28;20495;-85
2021/04/07 03:27:26;;;;;;;11.43;5.20;;;0.60;86.10;;;-0.73;70.95;98116.03;4978664;28;20503;-85
2021/04/07 03:29:52;;;;;;;7.07;4.70;;;0.60;86.40;;;-0.71;70.41;98120.13;4996303;28;20414;-85
2021/04/07 03:32:19;;;;;;;9.23;4.97;;;0.60;86.10;;;-0.73;70.42;98121.25;4995601;28;20438;-85
2021/04/07 03:34:45;;;;;;;10.20;4.93;;;0.70;85.90;;;-0.74;69.90;98122.22;4998237;28;20645;-84
2021/04/07 03:37:11;;;;;;;10.15;5.18;;;0.60;85.60;;;-0.81;70.16;98135.84;4998724;28;20434;-85
2021/04/07 03:39:37;;;;;;;7.65;5.20;;;0.60;85.70;;;-0.82;70.63;98139.44;4998672;28;20425;-86
2021/04/07 03:42:04;;;;;;;7.23;4.47;;;0.50;86.10;;;-0.72;70.84;98146.25;4996951;28;20475;-85
2021/04/07 03:44:30;;;;;;;7.77;4.80;;;0.60;86.40;;;-0.71;70.30;98153.09;4997505;28;20453;-85
2021/04/07 03:46:56;;;;;;;8.60;5.20;;;0.60;86.30;;;-0.70;70.21;98152.13;4995852;28;20433;-85
2021/04/07 03:49:22;;;;;;;7.20;4.97;;;0.60;86.10;;;-0.78;70.14;98160.72;4998850;28;20555;-83
2021/04/07 03:51:48;;;;;;;5.78;4.47;;;0.60;86.10;;;-0.84;71.04;98157.00;4999199;28;20437;-83
2021/04/07 03:54:15;;;;;;;6.75;4.30;;;0.50;87.20;;;-0.92;70.38;98156.97;5003794;28;20456;-83
2021/04/07 03:56:41;;;;;;;6.53;4.28;;;0.50;86.10;;;-0.89;71.25;98146.25;5003955;28;20438;-82
2021/04/07 03:59:08;;;;;;;11.83;4.83;;;0.50;87.20;;;-0.84;70.62;98150.97;4999671;28;20480;-83
2021/04/07 04:01:34;;;;;;;9.52;4.93;;;0.50;86.50;;;-0.82;71.22;98154.19;4998630;28;20414;-82
2021/04/07 04:04:00;;;;;;;12.15;4.90;;;0.50;86.80;;;-0.72;70.75;98151.47;4999461;28;20425;-84
2021/04/07 04:06:26;;;;;;;10.27;4.80;;;0.60;86.70;;;-0.62;71.31;98159.94;4997443;28;20673;-84
2021/04/07 04:08:52;;;;;;;4.35;3.78;;;0.70;87.00;;;-0.56;68.88;98164.47;4997691;28;20763;-84
2021/04/07 04:11:18;;;;;;;6.72;4.35;;;0.80;84.60;;;-0.65;68.89;98165.44;4997465;28;20431;-84
2021/04/07 04:13:45;;;;;;;7.43;4.30;;;0.70;84.50;;;-0.55;70.12;98169.53;4998996;28;20501;-84
2021/04/07 04:16:12;;;;;;;4.90;3.30;;;0.70;85.60;;;-0.66;68.08;98176.81;4997703;28;20499;-85
2021/04/07 04:18:40;;;;;;;7.35;4.53;;;0.70;83.30;;;-0.64;68.05;98175.69;4996425;28;20410;-85
2021/04/07 04:21:06;;;;;;;5.75;4.25;;;0.70;83.80;;;-0.65;68.79;98183.66;4996302;28;20418;-84
2021/04/07 04:23:32;;;;;;;6.85;4.22;;;0.70;84.00;;;-0.56;69.16;98180.09;4996655;28;20699;-84
2021/04/07 04:25:58;;;;;;;8.02;4.75;;;0.70;84.60;;;-0.58;68.66;98185.44;4984518;28;20542;-85
2021/04/07 04:28:24;;;;;;;7.75;4.20;;;0.70;84.00;;;-0.63;68.81;98198.13;4978413;28;20510;-84
2021/04/07 04:30:50;;;;;;;8.33;4.40;;;0.70;84.40;;;-0.68;69.29;98197.78;4977381;28;20463;-84
2021/04/07 04:33:18;;;;;;;8.52;5.13;;;0.70;84.60;;;-0.56;69.39;98195.69;4977521;28;20413;-84
2021/04/07 04:35:44;;;;;;;8.23;4.47;;;0.70;85.10;;;-0.47;68.88;98197.31;4960767;28;20424;-84
2021/04/07 04:38:10;;;;;;;8.07;4.53;;;0.80;85.00;;;-0.52;68.14;98208.19;4980123;28;20424;-84
2021/04/07 04:40:36;;;;;;;9.25;4.40;;;0.80;83.60;;;-0.59;67.95;98207.22;4961618;28;20428;-85
2021/04/07 04:43:03;;;;;;;8.40;3.75;;;0.70;83.40;;;-0.63;67.79;98218.91;4979566;28;20409;-84
2021/04/07 04:45:29;;;;;;;8.32;4.43;;;0.70;82.90;;;-0.58;68.77;98224.44;4989847;28;20782;-84
2021/04/07 04:47:55;;;;;;;7.60;4.25;;;0.70;84.60;;;-0.50;67.54;98229.66;4989405;28;20783;-83
2021/04/07 04:50:22;;;;;;;5.40;3.67;;;0.80;83.00;;;-0.65;66.96;98239.06;4987929;28;20408;-84
2021/04/07 04:52:48;;;;;;;5.97;3.85;;;0.70;82.10;;;-0.66;68.19;98244.41;4959893;28;20475;-84
2021/04/07 04:55:15;;;;;;;104.93;42.70;;;0.70;83.00;;;-0.58;67.27;98241.81;4987454;28;20401;-83
2021/04/07 04:57:41;;;;;;;7.70;3.97;;;0.70;82.80;;;-0.62;67.23;98254.34;4993884;28;20408;-84
2021/04/07 05:00:08;;;;;;;7.60;3.50;;;0.70;82.60;;;-0.59;67.09;98255.78;4993294;28;20405;-84
2021/04/07 05:02:35;;;;;;;6.40;3.92;;;0.70;82.20;;;-0.64;67.37;98263.25;4992493;28;20410;-84
2021/04/07 05:05:01;;;;;;;9.23;4.40;;;0.70;82.20;;;-0.58;67.46;98268.63;4984387;28;20462;-84
2021/04/07 05:07:28;;;;;;;8.73;4.03;;;0.70;82.40;;;-0.64;66.91;98268.47;4980905;28;20431;-86
2021/04/07 05:09:54;;;;;;;6.63;3.92;;;0.70;81.50;;;-0.59;67.38;98269.59;4980775;28;20507;-85
2021/04/07 05:12:21;;;;;;;8.02;3.83;;;0.70;82.10;;;-0.51;66.44;98274.00;4978473;28;20632;-84
2021/04/07 05:14:50;;;;;;;8.45;3.97;;;0.80;81.50;;;-0.49;66.54;98285.09;4978438;28;20420;-83
2021/04/07 05:17:16;;;;;;;9.48;4.45;;;0.90;81.40;;;-0.34;66.71;98287.88;4976968;28;20450;-85
2021/04/07 05:19:42;;;;;;;8.55;4.30;;;0.90;81.80;;;-0.24;66.29;98281.56;4976740;28;20565;-84
2021/04/07 05:22:09;;;;;;;7.37;4.13;;;1.00;81.40;;;-0.32;65.93;98291.13;4976622;28;20495;-84
2021/04/07 05:24:36;;;;;;;9.13;3.80;;;1.00;80.90;;;-0.53;66.71;98282.00;4977404;28;20584;-84
2021/04/07 05:27:02;;;;;;;6.25;3.95;;;0.80;81.40;;;-0.55;66.70;98283.13;4976454;28;20529;-84
2021/04/07 05:29:28;;;;;;;9.60;4.10;;;0.80;81.90;;;-0.52;66.96;98283.59;4977407;28;20515;-82
2021/04/07 05:31:54;;;;;;;10.25;4.55;;;0.80;81.70;;;-0.50;66.58;98306.84;4960774;28;20432;-84
2021/04/07 05:34:20;;;;;;;7.60;4.40;;;0.90;82.30;;;-0.55;66.97;98302.13;4977890;28;20412;-84
2021/04/07 05:36:46;;;;;;;10.38;5.28;;;0.70;81.70;;;-0.53;67.11;98302.00;4976281;28;20442;-84
2021/04/07 05:39:13;;;;;;;9.13;4.63;;;0.80;82.10;;;-0.55;66.83;98298.72;4959961;28;20814;-84
2021/04/07 05:41:40;;;;;;;7.87;4.43;;;0.80;81.90;;;-0.52;66.23;98303.59;4976605;28;20423;-83
2021/04/07 05:44:06;;;;;;;11.15;4.32;;;0.80;81.40;;;-0.65;66.30;98321.44;4976444;28;20416;-84
2021/04/07 05:46:33;;;;;;;9.23;4.03;;;0.70;81.00;;;-0.55;65.55;98320.34;4976504;28;20835;-85
2021/04/07 05:48:59;;;;;;;8.60;3.80;;;0.80;80.60;;;-0.49;65.46;98329.28;4976933;28;20477;-84
2021/04/07 05:51:25;;;;;;;9.55;3.72;;;0.80;80.20;;;-0.54;65.08;98357.56;4977560;28;20432;-84
2021/04/07 05:53:51;;;;;;;8.33;3.63;;;0.80;79.80;;;-0.59;65.54;98342.41;4979055;28;20490;-82
2021/04/07 05:56:17;;;;;;;6.35;4.00;;;0.80;79.70;;;-0.49;65.43;98350.09;4979707;28;20839;-83
2021/04/07 05:58:44;;;;;;;5.93;3.60;;;0.80;80.10;;;-0.47;64.97;98355.97;4972306;28;20428;-80
2021/04/07 06:01:10;;;;;;;7.35;3.92;;;0.80;79.30;;;-0.45;65.09;98349.59;4971275;28;20447;-80
2021/04/07 06:03:37;;;;;;;8.98;4.15;;;0.90;79.90;;;-0.40;64.12;98359.56;4990030;28;20411;-81
2021/04/07 06:06:05;;;;;;;7.50;3.63;;;0.90;79.30;;;-0.41;63.76;98365.72;4981457;28;20416;-80
2021/04/07 06:08:31;;;;;;;9.35;4.45;;;0.90;78.50;;;-0.46;64.44;98368.00;4976865;28;20431;-80
2021/04/07 06:10:57;;;;;;;5.80;3.33;;;0.90;79.00;;;-0.50;64.66;98366.66;4977332;28;20436;-83
2021/04/07 06:13:23;;;;;;;7.03;3.65;;;0.80;78.80;;;-0.56;64.31;98386.31;4977494;28;20412;-83
2021/04/07 06:15:50;;;;;;;8.30;4.00;;;0.80;78.80;;;-0.59;64.67;98389.22;4978095;28;20431;-82
2021/04/07 06:18:16;;;;;;;11.48;4.93;;;0.70;78.70;;;-0.44;64.27;98379.84;4978979;28;20670;-86
2021/04/07 06:20:45;;;;;;;9.52;4.43;;;0.80;79.00;;;-0.33;64.37;98386.56;4978701;28;20849;-86
2021/04/07 06:23:13;;;;;;;10.32;4.50;;;0.90;78.90;;;-0.22;63.05;98382.84;4977604;28;20413;-86
2021/04/07 06:25:40;;;;;;;10.05;3.30;;;1.10;77.90;;;-0.18;62.66;98390.19;4979165;28;20416;-85
2021/04/07 06:28:09;;;;;;;8.43;3.88;;;1.10;77.40;;;-0.12;62.62;98386.13;4978563;28;20416;-85
2021/04/07 06:30:48;;;;;;;8.88;4.15;;;1.10;76.80;;;0.05;62.34;98393.00;4981981;28;20431;-85
2021/04/07 06:33:18;;;;;;;8.50;3.38;;;1.30;77.40;;;0.04;61.02;98421.78;4980215;28;20535;-82
2021/04/07 06:35:47;;;;;;;8.48;3.20;;;1.40;75.10;;;0.00;60.66;98422.09;4979078;28;20400;-82
2021/04/07 06:38:14;;;;;;;6.10;3.33;;;1.30;74.90;;;0.04;59.53;98416.59;4960361;28;20428;-82
2021/04/07 06:40:40;;;;;;;7.45;3.25;;;1.40;73.70;;;0.12;60.93;98414.81;4960087;28;20883;-83
2021/04/07 06:43:07;;;;;;;10.88;3.30;;;1.40;74.60;;;0.15;60.60;98426.72;4979208;28;20412;-84
2021/04/07 06:45:37;;;;;;;10.27;3.90;;;1.40;74.40;;;0.04;60.64;98425.22;4977290;28;21123;-83
2021/04/07 06:48:05;;;;;;;15.30;4.57;;;1.40;74.50;;;0.19;60.79;98423.63;4977963;28;20434;-83
2021/04/07 06:50:32;;;;;;;8.30;3.40;;;1.40;74.80;;;0.24;60.04;98431.75;4978315;28;20424;-83
2021/04/07 06:53:01;;;;;;;8.05;3.25;;;1.50;73.50;;;0.18;60.13;98427.19;4977153;28;20532;-83
2021/04/07 06:55:28;;;;;;;10.20;3.80;;;1.50;73.80;;;0.18;59.68;98432.41;4977514;28;20743;-83
2021/04/07 06:57:55;;;;;;;11.67;3.77;;;1.40;74.10;;;0.24;59.53;98441.34;4978045;28;20419;-83
2021/04/07 07:00:26;;;;;;;10.40;3.80;;;1.50;73.40;;;0.39;59.92;98445.78;4978109;28;20424;-83
2021/04/07 07:02:59;;;;;;;8.70;3.20;;;1.60;73.80;;;0.19;59.56;98454.06;4979829;28;20416;-84
2021/04/07 07:05:26;;;;;;;9.25;3.63;;;1.50;73.10;;;0.31;60.09;98448.38;4980748;28;20444;-85
2021/04/07 07:08:01;;;;;;;7.47;3.28;;;1.60;74.00;;;0.23;60.18;98471.78;4979442;28;20465;-85
2021/04/07 07:10:39;;;;;;;8.48;3.38;;;1.50;73.60;;;0.54;59.24;98456.38;4981063;28;20416;-84
2021/04/07 07:13:06;;;;;;;8.10;3.70;;;1.70;73.80;;;0.42;59.08;98469.88;4979102;28;20424;-86
2021/04/07 07:15:33;;;;;;;4.47;2.77;;;1.80;72.80;;;0.19;59.13;98473.09;4977155;28;20455;-85
2021/04/07 07:17:59;;;;;;;9.05;3.25;;;1.50;72.20;;;0.06;59.61;98466.72;4975350;28;20432;-86
2021/04/07 07:20:31;;;;;;;6.00;3.22;;;1.40;73.00;;;-0.06;59.29;98471.38;4960004;28;20446;-86
2021/04/07 07:22:59;;;;;;;9.40;3.60;;;1.20;73.00;;;0.24;59.90;98470.81;4959437;28;20428;-87
2021/04/07 07:25:32;;;;;;;7.85;4.25;;;1.40;74.10;;;0.55;59.01;98468.44;4963130;28;20424;-86
2021/04/07 07:28:01;;;;;;;11.38;3.88;;;1.70;73.80;;;0.88;58.28;98471.88;4961983;28;20462;-86
2021/04/07 07:30:42;;;;;;;9.57;3.08;;;2.00;72.70;;;0.89;57.77;98473.53;4980162;28;20423;-85
2021/04/07 07:33:19;;;;;;;6.78;2.40;;;2.00;71.20;;;0.64;56.82;98467.47;4978361;28;20814;-84
2021/04/07 07:35:47;;;;;;;7.32;3.65;;;2.00;69.50;;;0.96;57.15;98469.28;4979354;28;20427;-83
2021/04/07 07:38:22;;;;;;;8.93;3.28;;;2.10;70.40;;;0.91;56.75;98473.34;4978855;28;20805;-85
2021/04/07 07:40:57;;;;;;;9.25;3.55;;;2.10;69.80;;;0.85;57.08;98484.41;4978850;28;20743;-85
2021/04/07 07:43:23;;;;;;;12.73;2.90;;;2.10;70.20;;;0.72;57.03;98479.69;4980759;28;20590;-85
2021/04/07 07:45:49;;;;;;;8.55;3.45;;;1.90;69.60;;;1.01;57.33;98487.84;4979315;28;20404;-85
2021/04/07 07:48:20;;;;;;;4.75;2.63;;;2.10;70.30;;;0.88;55.65;98497.13;4979533;28;20420;-85
2021/04/07 07:50:48;;;;;;;6.38;3.08;;;2.20;68.30;;;0.81;55.73;98496.97;4980073;28;20415;-84
2021/04/07 07:53:18;;;;;;;10.48;3.13;;;2.00;68.70;;;0.99;56.41;98507.22;4994216;28;20720;-84
2021/04/07 07:55:49;;;;;;;10.98;3.17;;;2.20;69.30;;;1.02;56.22;98510.34;5001453;28;20430;-84
2021/04/07 07:58:15;;;;;;;7.03;2.70;;;2.30;69.50;;;0.56;56.16;98519.56;4980201;28;20915;-83
2021/04/07 08:00:41;;;;;;;477.17;40.15;;;1.90;68.40;;;0.94;56.90;98523.38;4999536;28;20766;-85
2021/04/07 08:03:11;;;;;;;14.55;3.25;;;2.20;70.10;;;0.84;57.83;98524.50;4996139;28;20406;-84
2021/04/07 08:05:38;;;;;;;11.88;3.70;;;2.10;70.50;;;0.78;57.15;98539.81;4995597;28;20410;-84
2021/04/07 08:08:06;;;;;;;15.43;3.00;;;2.20;69.80;;;0.67;57.54;98527.09;4979443;28;20498;-85
2021/04/07 08:10:33;;;;;;;20.50;3.55;;;2.00;70.70;;;0.76;56.59;98530.50;4995899;28;20823;-85
2021/04/07 08:13:04;;;;;;;21.77;3.85;;;2.00;70.30;;;1.14;56.54;98529.06;4995643;28;20441;-85
2021/04/07 08:15:31;;;;;;;9.35;2.67;;;2.20;70.00;;;1.07;56.88;98525.47;4995951;28;20419;-83
2021/04/07 08:17:59;;;;;;;22.60;4.00;;;2.30;69.40;;;1.61;55.69;98523.97;4994662;28;20578;-85
2021/04/07 08:20:27;;;;;;;8.60;3.00;;;2.70;69.30;;;1.54;55.32;98536.06;4977896;28;20716;-83
2021/04/07 08:22:55;;;;;;;8.52;2.85;;;2.70;68.00;;;1.19;55.48;98529.41;4994990;28;20461;-84
2021/04/07 08:25:21;;;;;;;14.02;3.33;;;2.60;67.70;;;1.55;55.36;98541.13;4995638;28;20403;-83
2021/04/07 08:27:51;;;;;;;11.50;3.08;;;2.70;68.20;;;1.56;55.53;98536.72;4995698;28;20475;-83
2021/04/07 08:30:21;;;;;;;10.68;3.13;;;2.80;67.90;;;1.42;56.00;98542.59;4996127;28;20443;-83
2021/04/07 08:32:50;;;;;;;11.25;3.88;;;2.70;68.60;;;0.98;58.46;98545.50;4996574;28;20862;-85
2021/04/07 08:35:17;;;;;;;11.25;3.38;;;2.20;71.20;;;1.01;59.39;98552.22;4978506;28;20415;-82
2021/04/07 08:37:43;;;;;;;11.15;3.47;;;2.20;72.40;;;0.86;60.29;98549.41;4979463;28;20426;-82
2021/04/07 08:40:12;;;;;;;8.18;3.50;;;2.10;73.80;;;0.80;61.06;98555.28;4996928;28;20410;-84
2021/04/07 08:42:40;;;;;;;11.15;3.30;;;2.00;75.10;;;1.20;60.90;98564.94;4995587;28;20415;-85
2021/04/07 08:45:09;;;;;;;6.47;2.92;;;2.30;75.90;;;1.37;59.62;98563.94;4984302;28;20526;-85
2021/04/07 08:47:44;;;;;;;5.32;3.35;;;2.50;73.60;;;1.15;59.26;98562.81;4980614;28;20553;-84
2021/04/07 08:50:14;;;;;;;7.82;3.28;;;2.40;72.70;;;0.95;58.90;98564.09;4997711;28;20421;-83
2021/04/07 08:52:46;;;;;;;7.53;3.22;;;2.30;72.10;;;1.13;59.14;98562.16;4995089;28;21056;-84
2021/04/07 08:55:17;;;;;;;7.15;3.20;;;2.40;72.80;;;1.42;57.99;98576.53;4995331;28;20602;-84
2021/04/07 08:57:43;;;;;;;8.10;3.30;;;2.60;71.70;;;1.70;56.35;98583.00;4994229;28;20415;-84
2021/04/07 09:00:12;;;;;;;8.27;3.33;;;2.90;70.00;;;1.17;57.48;98586.13;4948524;28;1351074;-83
2021/04/07 09:02:50;;;;;;;7.72;2.85;;;2.50;70.40;;;0.99;58.75;98599.28;4996840;28;20417;-84
2021/04/07 09:05:27;;;;;;;15.18;3.10;;;2.30;71.90;;;0.90;60.38;98589.84;4998077;28;20686;-84
2021/04/07 09:07:56;;;;;;;6.50;2.85;;;2.10;73.90;;;0.70;60.98;98598.91;4985945;28;20430;-84
2021/04/07 09:10:26;;;;;;;9.60;3.45;;;2.00;75.30;;;1.18;62.36;98585.16;4996058;28;20407;-83
2021/04/07 09:12:54;;;;;;;8.65;3.42;;;2.30;77.30;;;0.53;64.90;98597.22;5089358;23;20500;-79
2021/04/07 09:15:23;;;;;;;8.48;3.63;;;1.90;80.80;;;0.63;66.88;98593.50;4997602;28;20486;-78
2021/04/07 09:17:53;;;;;;;31.00;4.70;;;1.80;82.60;;;1.01;66.65;98592.13;4997469;28;20492;-80
2021/04/07 09:20:40;;;;;;;8.43;3.00;;;2.10;83.00;;;0.87;63.58;98600.56;4996877;28;20795;-80
2021/04/07 09:23:15;;;;;;;7.88;3.58;;;2.20;78.60;;;1.07;63.84;98594.09;4996692;28;20415;-81
2021/04/07 09:25:48;;;;;;;8.18;3.50;;;2.30;78.90;;;1.30;61.32;98594.28;4996402;28;20407;-79
2021/04/07 09:28:15;;;;;;;12.98;3.63;;;2.50;76.70;;;1.00;60.97;98600.91;4995052;28;20556;-78
2021/04/07 09:30:47;;;;;;;7.18;3.28;;;2.20;75.20;;;1.16;60.24;98582.69;4995607;28;20410;-80
2021/04/07 09:33:19;;;;;;;5.35;3.30;;;2.30;74.90;;;1.10;60.71;98587.75;4996530;28;20423;-78
2021/04/07 09:35:53;;;;;;;6.45;3.13;;;2.30;74.90;;;1.51;59.81;98580.72;4997398;28;20429;-81
2021/04/07 09:38:19;;;;;;;7.63;3.60;;;2.60;74.50;;;1.59;60.05;98579.91;4996436;28;20513;-79
2021/04/07 09:40:46;;;;;;;6.20;3.50;;;2.80;74.20;;;1.93;58.74;98575.31;4996996;28;20418;-79
2021/04/07 09:43:12;;;;;;;8.13;3.17;;;3.00;73.60;;;1.97;57.55;98578.38;4995871;28;20731;-79
2021/04/07 09:45:38;;;;;;;7.07;3.00;;;3.20;71.00;;;2.26;57.51;98587.25;4995543;28;20414;-79
2021/04/07 09:48:06;;;;;;;6.30;2.85;;;3.40;71.00;;;1.89;56.74;98582.63;4978611;28;20433;-78
2021/04/07 09:50:34;;;;;;;6.10;3.75;;;3.10;70.20;;;2.28;54.97;98579.25;4996141;28;20506;-80
2021/04/07 09:53:00;;;;;;;8.07;2.97;;;3.40;69.20;;;2.03;54.30;98575.91;5002096;28;20430;-80
2021/04/07 09:55:27;;;;;;;10.35;3.58;;;3.20;66.20;;;2.47;53.85;98573.66;4998084;28;20414;-80
2021/04/07 09:58:01;;;;;;;13.05;3.20;;;3.40;66.80;;;2.33;52.86;98584.81;4997846;28;20575;-80
2021/04/07 10:00:30;;;;;;;6.85;2.78;;;3.60;65.50;;;1.97;54.37;98560.91;4996050;28;20500;-79
2021/04/07 10:02:57;;;;;;;7.57;3.00;;;3.20;66.40;;;2.16;54.47;98588.47;4994182;28;20867;-80
2021/04/07 10:05:32;;;;;;;24.10;3.67;;;3.40;67.40;;;2.02;55.00;98589.16;4996360;28;20868;-80
2021/04/07 10:08:15;;;;;;;7.18;3.38;;;3.20;67.80;;;2.51;54.09;98577.53;4994680;28;20454;-80
2021/04/07 10:10:42;;;;;;;5.38;3.28;;;3.50;67.60;;;2.66;53.48;98581.06;4993301;28;20422;-79
2021/04/07 10:13:09;;;;;;;15.70;3.80;;;3.80;66.10;;;3.10;52.10;98588.31;4994898;28;20471;-80
2021/04/07 10:15:37;;;;;;;8.98;3.40;;;4.10;64.70;;;2.89;51.74;98596.78;4979106;28;20445;-80
2021/04/07 10:18:09;;;;;;;9.30;3.88;;;4.10;63.40;;;3.16;51.88;98600.69;4994676;28;20425;-80
2021/04/07 10:20:36;;;;;;;4.30;2.72;;;4.30;63.70;;;3.17;51.82;98609.34;4979000;28;20465;-80
2021/04/07 10:23:08;;;;;;;10.77;2.88;;;4.40;63.60;;;2.38;54.42;98608.63;4998061;28;20410;-80
2021/04/07 10:25:36;;;;;;;7.70;3.38;;;3.70;65.90;;;2.40;56.52;98609.28;4998815;28;20438;-80
2021/04/07 10:28:03;;;;;;;12.50;3.53;;;3.60;69.20;;;2.55;56.50;98615.44;4997884;28;20471;-80
2021/04/07 10:30:35;;;;;;;13.27;4.15;;;3.70;70.20;;;2.47;57.99;98614.66;4997867;28;20509;-78